sensor_id;sensor_type;location;lat;lon;timestamp;P1;durP1;ratioP1;P2;durP2;ratioP2
52878;SDS011;38747;53.140;6.498;2022-09-09T00:04:29;15.60;;;8.23;;
52878;SDS011;38747;53.140;6.498;2022-09-09T00:12:48;14.02;;;7.78;;
52878;SDS011;38747;53.140;6.498;2022-09-09T00:15:22;15.18;;;8.27;;
52878;SDS011;38747;53.140;6.498;2022-09-09T00:20:44;16.13;;;8.40;;
52878;SDS011;38747;53.140;6.498;2022-09-09T00:26:02;14.40;;;8.18;;
52878;SDS011;38747;53.140;6.498;2022-09-09T00:28:50;16.42;;;8.32;;
52878;SDS011;38747;53.140;6.498;2022-09-09T00:31:26;14.45;;;8.05;;
52878;SDS011;38747;53.140;6.498;2022-09-09T00:33:55;14.60;;;8.13;;
52878;SDS011;38747;53.140;6.498;2022-09-09T00:36:26;15.25;;;8.20;;
52878;SDS011;38747;53.140;6.498;2022-09-09T00:38:56;15.07;;;7.85;;
52878;SDS011;38747;53.140;6.498;2022-09-09T00:41:32;13.90;;;8.60;;
52878;SDS011;38747;53.140;6.498;2022-09-09T00:49:15;13.85;;;8.05;;
52878;SDS011;38747;53.140;6.498;2022-09-09T00:57:58;14.35;;;7.75;;
52878;SDS011;38747;53.140;6.498;2022-09-09T01:00:29;15.48;;;8.00;;
52878;SDS011;38747;53.140;6.498;2022-09-09T01:03:00;13.60;;;7.67;;
52878;SDS011;38747;53.140;6.498;2022-09-09T01:05:40;13.15;;;7.55;;
52878;SDS011;38747;53.140;6.498;2022-09-09T01:11:17;13.43;;;7.57;;
52878;SDS011;38747;53.140;6.498;2022-09-09T01:13:47;15.43;;;7.68;;
52878;SDS011;38747;53.140;6.498;2022-09-09T01:16:18;12.87;;;7.80;;
52878;SDS011;38747;53.140;6.498;2022-09-09T01:18:45;14.30;;;7.25;;
52878;SDS011;38747;53.140;6.498;2022-09-09T01:27:03;13.68;;;6.88;;
52878;SDS011;38747;53.140;6.498;2022-09-09T01:29:31;11.87;;;6.90;;
52878;SDS011;38747;53.140;6.498;2022-09-09T01:31:58;11.60;;;6.95;;
52878;SDS011;38747;53.140;6.498;2022-09-09T01:34:47;11.15;;;6.97;;
52878;SDS011;38747;53.140;6.498;2022-09-09T01:37:12;11.07;;;7.03;;
52878;SDS011;38747;53.140;6.498;2022-09-09T01:39:38;13.07;;;7.20;;
52878;SDS011;38747;53.140;6.498;2022-09-09T01:42:06;12.50;;;7.18;;
52878;SDS011;38747;53.140;6.498;2022-09-09T01:44:34;12.73;;;7.20;;
52878;SDS011;38747;53.140;6.498;2022-09-09T01:47:01;14.35;;;7.53;;
52878;SDS011;38747;53.140;6.498;2022-09-09T01:49:27;13.50;;;7.10;;
52878;SDS011;38747;53.140;6.498;2022-09-09T01:51:53;15.00;;;7.32;;
52878;SDS011;38747;53.140;6.498;2022-09-09T01:54:22;12.32;;;6.95;;
52878;SDS011;38747;53.140;6.498;2022-09-09T01:57:33;14.30;;;7.45;;
52878;SDS011;38747;53.140;6.498;2022-09-09T02:08:06;13.52;;;7.55;;
52878;SDS011;38747;53.140;6.498;2022-09-09T02:11:34;14.98;;;7.32;;
52878;SDS011;38747;53.140;6.498;2022-09-09T02:13:35;14.03;;;6.90;;
52878;SDS011;38747;53.140;6.498;2022-09-09T02:16:12;14.88;;;7.25;;
52878;SDS011;38747;53.140;6.498;2022-09-09T02:21:42;14.25;;;7.97;;
52878;SDS011;38747;53.140;6.498;2022-09-09T02:24:10;14.93;;;7.57;;
52878;SDS011;38747;53.140;6.498;2022-09-09T02:26:40;15.67;;;8.00;;
52878;SDS011;38747;53.140;6.498;2022-09-09T02:29:09;13.32;;;7.22;;
52878;SDS011;38747;53.140;6.498;2022-09-09T02:31:39;12.02;;;8.00;;
52878;SDS011;38747;53.140;6.498;2022-09-09T02:34:07;15.05;;;7.75;;
52878;SDS011;38747;53.140;6.498;2022-09-09T02:36:36;12.25;;;7.60;;
52878;SDS011;38747;53.140;6.498;2022-09-09T02:39:04;14.23;;;7.87;;
52878;SDS011;38747;53.140;6.498;2022-09-09T02:41:33;13.98;;;7.90;;
52878;SDS011;38747;53.140;6.498;2022-09-09T02:44:01;14.85;;;7.50;;
52878;SDS011;38747;53.140;6.498;2022-09-09T02:46:35;12.15;;;7.25;;
52878;SDS011;38747;53.140;6.498;2022-09-09T02:49:10;15.45;;;7.88;;
52878;SDS011;38747;53.140;6.498;2022-09-09T02:54:37;13.68;;;7.80;;
52878;SDS011;38747;53.140;6.498;2022-09-09T02:59:29;15.57;;;7.73;;
52878;SDS011;38747;53.140;6.498;2022-09-09T03:01:55;14.90;;;7.63;;
52878;SDS011;38747;53.140;6.498;2022-09-09T03:04:21;14.18;;;7.40;;
52878;SDS011;38747;53.140;6.498;2022-09-09T03:06:47;15.83;;;8.00;;
52878;SDS011;38747;53.140;6.498;2022-09-09T03:09:12;13.27;;;7.53;;
52878;SDS011;38747;53.140;6.498;2022-09-09T03:11:38;14.03;;;7.33;;
52878;SDS011;38747;53.140;6.498;2022-09-09T03:14:04;13.48;;;7.72;;
52878;SDS011;38747;53.140;6.498;2022-09-09T03:16:29;12.67;;;7.53;;
52878;SDS011;38747;53.140;6.498;2022-09-09T03:18:55;13.38;;;7.32;;
52878;SDS011;38747;53.140;6.498;2022-09-09T03:21:21;13.03;;;7.03;;
52878;SDS011;38747;53.140;6.498;2022-09-09T03:23:46;12.88;;;6.38;;
52878;SDS011;38747;53.140;6.498;2022-09-09T03:26:13;12.52;;;6.35;;
52878;SDS011;38747;53.140;6.498;2022-09-09T03:28:40;11.63;;;6.65;;
52878;SDS011;38747;53.140;6.498;2022-09-09T03:31:06;12.33;;;6.30;;
52878;SDS011;38747;53.140;6.498;2022-09-09T03:33:35;17.67;;;6.80;;
52878;SDS011;38747;53.140;6.498;2022-09-09T03:36:03;12.77;;;6.35;;
52878;SDS011;38747;53.140;6.498;2022-09-09T03:38:30;11.05;;;6.05;;
52878;SDS011;38747;53.140;6.498;2022-09-09T03:40:57;13.15;;;5.75;;
52878;SDS011;38747;53.140;6.498;2022-09-09T03:43:23;9.97;;;4.93;;
52878;SDS011;38747;53.140;6.498;2022-09-09T03:45:50;12.43;;;5.95;;
52878;SDS011;38747;53.140;6.498;2022-09-09T03:48:16;15.43;;;5.47;;
52878;SDS011;38747;53.140;6.498;2022-09-09T03:50:46;12.18;;;5.20;;
52878;SDS011;38747;53.140;6.498;2022-09-09T03:53:13;10.70;;;5.63;;
52878;SDS011;38747;53.140;6.498;2022-09-09T03:55:44;10.10;;;5.40;;
52878;SDS011;38747;53.140;6.498;2022-09-09T03:58:14;12.02;;;5.20;;
52878;SDS011;38747;53.140;6.498;2022-09-09T04:00:40;10.70;;;4.88;;
52878;SDS011;38747;53.140;6.498;2022-09-09T04:03:09;11.00;;;4.88;;
52878;SDS011;38747;53.140;6.498;2022-09-09T04:05:35;14.68;;;5.13;;
52878;SDS011;38747;53.140;6.498;2022-09-09T04:08:04;13.40;;;4.67;;
52878;SDS011;38747;53.140;6.498;2022-09-09T04:10:30;9.25;;;4.88;;
52878;SDS011;38747;53.140;6.498;2022-09-09T04:12:56;9.68;;;3.92;;
52878;SDS011;38747;53.140;6.498;2022-09-09T04:15:22;10.00;;;4.07;;
52878;SDS011;38747;53.140;6.498;2022-09-09T04:17:47;10.93;;;4.07;;
52878;SDS011;38747;53.140;6.498;2022-09-09T04:20:13;10.77;;;4.35;;
52878;SDS011;38747;53.140;6.498;2022-09-09T04:22:38;11.33;;;4.30;;
52878;SDS011;38747;53.140;6.498;2022-09-09T04:25:07;10.50;;;4.23;;
52878;SDS011;38747;53.140;6.498;2022-09-09T04:27:33;9.93;;;3.90;;
52878;SDS011;38747;53.140;6.498;2022-09-09T04:29:58;8.93;;;4.07;;
52878;SDS011;38747;53.140;6.498;2022-09-09T04:32:24;8.77;;;4.13;;
52878;SDS011;38747;53.140;6.498;2022-09-09T04:34:53;12.40;;;4.40;;
52878;SDS011;38747;53.140;6.498;2022-09-09T04:37:19;12.13;;;4.30;;
52878;SDS011;38747;53.140;6.498;2022-09-09T04:39:44;9.33;;;3.87;;
52878;SDS011;38747;53.140;6.498;2022-09-09T04:42:10;9.73;;;4.30;;
52878;SDS011;38747;53.140;6.498;2022-09-09T04:44:36;9.17;;;4.20;;
52878;SDS011;38747;53.140;6.498;2022-09-09T04:47:02;11.90;;;4.50;;
52878;SDS011;38747;53.140;6.498;2022-09-09T04:49:27;7.93;;;4.47;;
52878;SDS011;38747;53.140;6.498;2022-09-09T04:51:53;10.38;;;4.55;;
52878;SDS011;38747;53.140;6.498;2022-09-09T04:54:18;9.97;;;4.80;;
52878;SDS011;38747;53.140;6.498;2022-09-09T04:56:44;12.37;;;4.70;;
52878;SDS011;38747;53.140;6.498;2022-09-09T04:59:09;8.88;;;4.72;;
52878;SDS011;38747;53.140;6.498;2022-09-09T05:01:35;9.13;;;4.90;;
52878;SDS011;38747;53.140;6.498;2022-09-09T05:04:02;11.52;;;5.60;;
52878;SDS011;38747;53.140;6.498;2022-09-09T05:06:27;12.73;;;4.90;;
52878;SDS011;38747;53.140;6.498;2022-09-09T05:08:56;13.07;;;4.83;;
52878;SDS011;38747;53.140;6.498;2022-09-09T05:11:27;11.27;;;5.47;;
52878;SDS011;38747;53.140;6.498;2022-09-09T05:13:55;11.57;;;5.47;;
52878;SDS011;38747;53.140;6.498;2022-09-09T05:16:22;11.23;;;4.90;;
52878;SDS011;38747;53.140;6.498;2022-09-09T05:18:48;10.40;;;5.60;;
52878;SDS011;38747;53.140;6.498;2022-09-09T05:21:16;14.83;;;6.70;;
52878;SDS011;38747;53.140;6.498;2022-09-09T05:23:42;11.23;;;5.70;;
52878;SDS011;38747;53.140;6.498;2022-09-09T05:26:14;14.23;;;6.00;;
52878;SDS011;38747;53.140;6.498;2022-09-09T05:28:42;10.95;;;5.90;;
52878;SDS011;38747;53.140;6.498;2022-09-09T05:31:08;11.37;;;5.73;;
52878;SDS011;38747;53.140;6.498;2022-09-09T05:33:37;12.85;;;6.30;;
52878;SDS011;38747;53.140;6.498;2022-09-09T05:36:06;12.35;;;6.07;;
52878;SDS011;38747;53.140;6.498;2022-09-09T05:38:34;12.75;;;6.00;;
52878;SDS011;38747;53.140;6.498;2022-09-09T05:41:00;13.30;;;6.65;;
52878;SDS011;38747;53.140;6.498;2022-09-09T05:43:27;12.80;;;7.10;;
52878;SDS011;38747;53.140;6.498;2022-09-09T05:48:29;13.73;;;6.88;;
52878;SDS011;38747;53.140;6.498;2022-09-09T05:50:57;13.85;;;7.05;;
52878;SDS011;38747;53.140;6.498;2022-09-09T05:53:23;14.07;;;7.70;;
52878;SDS011;38747;53.140;6.498;2022-09-09T05:55:49;15.57;;;7.17;;
52878;SDS011;38747;53.140;6.498;2022-09-09T05:58:15;13.27;;;6.90;;
52878;SDS011;38747;53.140;6.498;2022-09-09T06:00:41;13.18;;;7.03;;
52878;SDS011;38747;53.140;6.498;2022-09-09T06:03:12;13.83;;;7.60;;
52878;SDS011;38747;53.140;6.498;2022-09-09T06:05:37;13.60;;;7.45;;
52878;SDS011;38747;53.140;6.498;2022-09-09T06:08:03;12.32;;;6.60;;
52878;SDS011;38747;53.140;6.498;2022-09-09T06:10:29;13.43;;;7.37;;
52878;SDS011;38747;53.140;6.498;2022-09-09T06:12:54;13.48;;;6.80;;
52878;SDS011;38747;53.140;6.498;2022-09-09T06:15:20;13.27;;;6.60;;
52878;SDS011;38747;53.140;6.498;2022-09-09T06:17:45;13.00;;;6.95;;
52878;SDS011;38747;53.140;6.498;2022-09-09T06:20:12;12.53;;;6.70;;
52878;SDS011;38747;53.140;6.498;2022-09-09T06:22:39;12.18;;;6.03;;
52878;SDS011;38747;53.140;6.498;2022-09-09T06:25:06;13.02;;;6.65;;
52878;SDS011;38747;53.140;6.498;2022-09-09T06:27:33;13.13;;;6.88;;
52878;SDS011;38747;53.140;6.498;2022-09-09T06:29:59;11.73;;;6.50;;
52878;SDS011;38747;53.140;6.498;2022-09-09T06:32:24;13.83;;;6.73;;
52878;SDS011;38747;53.140;6.498;2022-09-09T06:34:51;12.63;;;6.83;;
52878;SDS011;38747;53.140;6.498;2022-09-09T06:37:17;12.38;;;5.90;;
52878;SDS011;38747;53.140;6.498;2022-09-09T06:39:43;11.35;;;6.53;;
52878;SDS011;38747;53.140;6.498;2022-09-09T06:42:09;13.43;;;6.70;;
52878;SDS011;38747;53.140;6.498;2022-09-09T06:44:35;12.27;;;6.33;;
52878;SDS011;38747;53.140;6.498;2022-09-09T06:47:04;11.32;;;6.20;;
52878;SDS011;38747;53.140;6.498;2022-09-09T06:49:30;12.30;;;6.10;;
52878;SDS011;38747;53.140;6.498;2022-09-09T06:51:55;10.98;;;6.20;;
52878;SDS011;38747;53.140;6.498;2022-09-09T06:54:22;11.10;;;6.07;;
52878;SDS011;38747;53.140;6.498;2022-09-09T06:56:49;10.50;;;5.63;;
52878;SDS011;38747;53.140;6.498;2022-09-09T06:59:15;11.70;;;6.30;;
52878;SDS011;38747;53.140;6.498;2022-09-09T07:01:41;12.57;;;6.03;;
52878;SDS011;38747;53.140;6.498;2022-09-09T07:04:12;10.07;;;5.78;;
52878;SDS011;38747;53.140;6.498;2022-09-09T07:06:42;11.02;;;5.90;;
52878;SDS011;38747;53.140;6.498;2022-09-09T07:09:10;13.07;;;5.88;;
52878;SDS011;38747;53.140;6.498;2022-09-09T07:11:41;11.15;;;5.90;;
52878;SDS011;38747;53.140;6.498;2022-09-09T07:14:08;13.70;;;6.27;;
52878;SDS011;38747;53.140;6.498;2022-09-09T07:16:34;12.65;;;6.97;;
52878;SDS011;38747;53.140;6.498;2022-09-09T07:19:02;10.77;;;5.75;;
52878;SDS011;38747;53.140;6.498;2022-09-09T07:21:29;9.40;;;5.32;;
52878;SDS011;38747;53.140;6.498;2022-09-09T07:23:55;10.57;;;5.82;;
52878;SDS011;38747;53.140;6.498;2022-09-09T07:26:22;10.73;;;6.13;;
52878;SDS011;38747;53.140;6.498;2022-09-09T07:28:50;11.43;;;6.20;;
52878;SDS011;38747;53.140;6.498;2022-09-09T07:31:20;11.27;;;6.03;;
52878;SDS011;38747;53.140;6.498;2022-09-09T07:33:50;10.63;;;5.57;;
52878;SDS011;38747;53.140;6.498;2022-09-09T07:36:17;10.20;;;5.70;;
52878;SDS011;38747;53.140;6.498;2022-09-09T07:38:47;10.02;;;5.35;;
52878;SDS011;38747;53.140;6.498;2022-09-09T07:41:17;10.25;;;5.28;;
52878;SDS011;38747;53.140;6.498;2022-09-09T07:43:46;10.82;;;6.00;;
52878;SDS011;38747;53.140;6.498;2022-09-09T07:46:13;9.77;;;5.20;;
52878;SDS011;38747;53.140;6.498;2022-09-09T07:48:44;11.33;;;5.60;;
52878;SDS011;38747;53.140;6.498;2022-09-09T07:51:12;12.13;;;5.68;;
52878;SDS011;38747;53.140;6.498;2022-09-09T07:53:44;11.90;;;5.57;;
52878;SDS011;38747;53.140;6.498;2022-09-09T07:56:12;9.73;;;5.45;;
52878;SDS011;38747;53.140;6.498;2022-09-09T07:58:39;9.65;;;5.18;;
52878;SDS011;38747;53.140;6.498;2022-09-09T08:01:13;9.07;;;5.00;;
52878;SDS011;38747;53.140;6.498;2022-09-09T08:03:42;11.20;;;5.25;;
52878;SDS011;38747;53.140;6.498;2022-09-09T08:06:09;9.15;;;5.07;;
52878;SDS011;38747;53.140;6.498;2022-09-09T08:08:35;10.73;;;4.50;;
52878;SDS011;38747;53.140;6.498;2022-09-09T08:11:12;9.60;;;4.68;;
52878;SDS011;38747;53.140;6.498;2022-09-09T08:13:39;8.40;;;4.83;;
52878;SDS011;38747;53.140;6.498;2022-09-09T08:18:42;9.65;;;4.72;;
52878;SDS011;38747;53.140;6.498;2022-09-09T08:23:37;9.57;;;5.10;;
52878;SDS011;38747;53.140;6.498;2022-09-09T08:26:07;9.97;;;5.13;;
52878;SDS011;38747;53.140;6.498;2022-09-09T08:28:40;8.65;;;4.78;;
52878;SDS011;38747;53.140;6.498;2022-09-09T08:31:18;10.27;;;4.93;;
52878;SDS011;38747;53.140;6.498;2022-09-09T08:33:46;10.55;;;5.13;;
52878;SDS011;38747;53.140;6.498;2022-09-09T08:36:15;10.13;;;4.97;;
52878;SDS011;38747;53.140;6.498;2022-09-09T08:38:48;10.30;;;5.00;;
52878;SDS011;38747;53.140;6.498;2022-09-09T08:52:57;9.93;;;4.50;;
52878;SDS011;38747;53.140;6.498;2022-09-09T09:00:57;9.60;;;4.40;;
52878;SDS011;38747;53.140;6.498;2022-09-09T09:12:10;9.77;;;4.75;;
52878;SDS011;38747;53.140;6.498;2022-09-09T09:14:45;9.52;;;4.65;;
52878;SDS011;38747;53.140;6.498;2022-09-09T09:17:13;10.35;;;4.70;;
52878;SDS011;38747;53.140;6.498;2022-09-09T09:19:40;10.83;;;4.97;;
52878;SDS011;38747;53.140;6.498;2022-09-09T09:22:21;10.35;;;4.32;;
52878;SDS011;38747;53.140;6.498;2022-09-09T09:27:31;10.82;;;3.63;;
52878;SDS011;38747;53.140;6.498;2022-09-09T09:30:02;9.35;;;3.72;;
52878;SDS011;38747;53.140;6.498;2022-09-09T09:32:37;11.50;;;3.60;;
52878;SDS011;38747;53.140;6.498;2022-09-09T09:35:11;8.63;;;2.97;;
52878;SDS011;38747;53.140;6.498;2022-09-09T09:37:37;11.85;;;3.60;;
52878;SDS011;38747;53.140;6.498;2022-09-09T09:40:12;9.57;;;3.00;;
52878;SDS011;38747;53.140;6.498;2022-09-09T09:42:51;8.88;;;3.42;;
52878;SDS011;38747;53.140;6.498;2022-09-09T09:45:22;10.90;;;3.60;;
52878;SDS011;38747;53.140;6.498;2022-09-09T09:48:01;10.95;;;3.20;;
52878;SDS011;38747;53.140;6.498;2022-09-09T09:50:29;10.13;;;3.10;;
52878;SDS011;38747;53.140;6.498;2022-09-09T09:52:57;11.55;;;3.30;;
52878;SDS011;38747;53.140;6.498;2022-09-09T09:55:30;8.55;;;3.03;;
52878;SDS011;38747;53.140;6.498;2022-09-09T09:58:02;10.90;;;3.30;;
52878;SDS011;38747;53.140;6.498;2022-09-09T10:00:30;8.80;;;3.05;;
52878;SDS011;38747;53.140;6.498;2022-09-09T10:02:57;9.25;;;3.30;;
52878;SDS011;38747;53.140;6.498;2022-09-09T10:05:26;11.40;;;3.25;;
52878;SDS011;38747;53.140;6.498;2022-09-09T10:10:42;9.97;;;3.27;;
52878;SDS011;38747;53.140;6.498;2022-09-09T10:13:41;9.50;;;2.97;;
52878;SDS011;38747;53.140;6.498;2022-09-09T10:19:03;8.23;;;2.65;;
52878;SDS011;38747;53.140;6.498;2022-09-09T10:21:50;9.00;;;2.75;;
52878;SDS011;38747;53.140;6.498;2022-09-09T10:24:47;8.73;;;1.97;;
52878;SDS011;38747;53.140;6.498;2022-09-09T10:27:42;9.63;;;2.20;;
52878;SDS011;38747;53.140;6.498;2022-09-09T10:30:21;8.40;;;1.80;;
52878;SDS011;38747;53.140;6.498;2022-09-09T10:32:57;10.93;;;2.15;;
52878;SDS011;38747;53.140;6.498;2022-09-09T10:35:37;9.07;;;2.10;;
52878;SDS011;38747;53.140;6.498;2022-09-09T10:38:14;7.70;;;1.90;;
52878;SDS011;38747;53.140;6.498;2022-09-09T10:51:44;5.80;;;1.63;;
52878;SDS011;38747;53.140;6.498;2022-09-09T10:54:38;7.38;;;2.25;;
52878;SDS011;38747;53.140;6.498;2022-09-09T10:57:14;9.20;;;2.20;;
52878;SDS011;38747;53.140;6.498;2022-09-09T10:59:49;6.88;;;1.75;;
52878;SDS011;38747;53.140;6.498;2022-09-09T11:02:24;5.68;;;1.30;;
52878;SDS011;38747;53.140;6.498;2022-09-09T11:07:54;5.35;;;1.40;;
52878;SDS011;38747;53.140;6.498;2022-09-09T11:13:31;9.40;;;1.70;;
52878;SDS011;38747;53.140;6.498;2022-09-09T11:18:50;6.77;;;1.50;;
52878;SDS011;38747;53.140;6.498;2022-09-09T11:21:28;10.02;;;1.80;;
52878;SDS011;38747;53.140;6.498;2022-09-09T11:24:10;9.35;;;1.88;;
52878;SDS011;38747;53.140;6.498;2022-09-09T11:27:19;8.30;;;1.95;;
52878;SDS011;38747;53.140;6.498;2022-09-09T11:30:02;6.93;;;1.60;;
52878;SDS011;38747;53.140;6.498;2022-09-09T11:32:46;5.17;;;1.40;;
52878;SDS011;38747;53.140;6.498;2022-09-09T11:38:27;8.95;;;1.70;;
52878;SDS011;38747;53.140;6.498;2022-09-09T11:40:58;8.70;;;1.65;;
52878;SDS011;38747;53.140;6.498;2022-09-09T11:43:38;7.38;;;1.88;;
52878;SDS011;38747;53.140;6.498;2022-09-09T11:46:05;5.93;;;1.60;;
52878;SDS011;38747;53.140;6.498;2022-09-09T11:51:07;8.07;;;1.80;;
52878;SDS011;38747;53.140;6.498;2022-09-09T11:53:46;6.13;;;1.58;;
52878;SDS011;38747;53.140;6.498;2022-09-09T11:56:30;9.02;;;1.70;;
52878;SDS011;38747;53.140;6.498;2022-09-09T12:04:12;9.15;;;1.92;;
52878;SDS011;38747;53.140;6.498;2022-09-09T12:06:56;7.85;;;1.55;;
52878;SDS011;38747;53.140;6.498;2022-09-09T12:12:28;9.63;;;1.83;;
52878;SDS011;38747;53.140;6.498;2022-09-09T12:14:56;5.65;;;1.55;;
52878;SDS011;38747;53.140;6.498;2022-09-09T12:17:41;8.00;;;1.90;;
52878;SDS011;38747;53.140;6.498;2022-09-09T12:20:22;6.18;;;1.42;;
52878;SDS011;38747;53.140;6.498;2022-09-09T12:31:00;7.80;;;1.63;;
52878;SDS011;38747;53.140;6.498;2022-09-09T12:33:36;8.13;;;1.58;;
52878;SDS011;38747;53.140;6.498;2022-09-09T12:36:08;6.93;;;1.40;;
52878;SDS011;38747;53.140;6.498;2022-09-09T12:38:39;8.00;;;1.53;;
52878;SDS011;38747;53.140;6.498;2022-09-09T12:41:06;7.15;;;1.58;;
52878;SDS011;38747;53.140;6.498;2022-09-09T12:43:44;6.47;;;1.30;;
52878;SDS011;38747;53.140;6.498;2022-09-09T12:46:11;4.77;;;1.30;;
52878;SDS011;38747;53.140;6.498;2022-09-09T12:48:46;7.20;;;1.40;;
52878;SDS011;38747;53.140;6.498;2022-09-09T12:51:19;4.78;;;1.10;;
52878;SDS011;38747;53.140;6.498;2022-09-09T12:53:50;9.10;;;1.63;;
52878;SDS011;38747;53.140;6.498;2022-09-09T12:56:20;7.00;;;1.60;;
52878;SDS011;38747;53.140;6.498;2022-09-09T12:58:50;5.38;;;1.27;;
52878;SDS011;38747;53.140;6.498;2022-09-09T13:01:18;6.43;;;1.45;;
52878;SDS011;38747;53.140;6.498;2022-09-09T13:03:53;7.72;;;1.30;;
52878;SDS011;38747;53.140;6.498;2022-09-09T13:06:20;6.00;;;1.27;;
52878;SDS011;38747;53.140;6.498;2022-09-09T13:08:48;7.10;;;1.33;;
52878;SDS011;38747;53.140;6.498;2022-09-09T13:11:29;6.35;;;1.33;;
52878;SDS011;38747;53.140;6.498;2022-09-09T13:14:01;6.45;;;1.60;;
52878;SDS011;38747;53.140;6.498;2022-09-09T13:19:07;7.43;;;1.73;;
52878;SDS011;38747;53.140;6.498;2022-09-09T13:21:39;7.40;;;1.63;;
52878;SDS011;38747;53.140;6.498;2022-09-09T13:24:06;7.00;;;1.40;;
52878;SDS011;38747;53.140;6.498;2022-09-09T13:26:53;8.40;;;1.67;;
52878;SDS011;38747;53.140;6.498;2022-09-09T13:29:30;5.93;;;1.38;;
52878;SDS011;38747;53.140;6.498;2022-09-09T13:32:18;7.43;;;1.60;;
52878;SDS011;38747;53.140;6.498;2022-09-09T13:34:51;6.27;;;1.73;;
52878;SDS011;38747;53.140;6.498;2022-09-09T13:37:37;8.07;;;1.40;;
52878;SDS011;38747;53.140;6.498;2022-09-09T13:40:06;4.95;;;1.38;;
52878;SDS011;38747;53.140;6.498;2022-09-09T13:42:41;6.15;;;1.20;;
52878;SDS011;38747;53.140;6.498;2022-09-09T13:45:17;6.07;;;1.50;;
52878;SDS011;38747;53.140;6.498;2022-09-09T13:47:48;6.50;;;1.37;;
52878;SDS011;38747;53.140;6.498;2022-09-09T13:50:27;5.95;;;1.35;;
52878;SDS011;38747;53.140;6.498;2022-09-09T13:52:54;5.65;;;1.15;;
52878;SDS011;38747;53.140;6.498;2022-09-09T13:55:23;4.13;;;1.00;;
52878;SDS011;38747;53.140;6.498;2022-09-09T13:57:51;5.28;;;1.10;;
52878;SDS011;38747;53.140;6.498;2022-09-09T14:00:28;9.47;;;1.17;;
52878;SDS011;38747;53.140;6.498;2022-09-09T14:02:56;5.80;;;1.25;;
52878;SDS011;38747;53.140;6.498;2022-09-09T14:05:22;6.78;;;1.08;;
52878;SDS011;38747;53.140;6.498;2022-09-09T14:07:48;5.57;;;1.10;;
52878;SDS011;38747;53.140;6.498;2022-09-09T14:10:14;4.47;;;1.25;;
52878;SDS011;38747;53.140;6.498;2022-09-09T14:12:40;5.53;;;1.20;;
52878;SDS011;38747;53.140;6.498;2022-09-09T14:15:06;6.57;;;1.53;;
52878;SDS011;38747;53.140;6.498;2022-09-09T14:17:34;6.35;;;1.13;;
52878;SDS011;38747;53.140;6.498;2022-09-09T14:20:01;5.30;;;1.17;;
52878;SDS011;38747;53.140;6.498;2022-09-09T14:22:34;5.28;;;1.27;;
52878;SDS011;38747;53.140;6.498;2022-09-09T14:25:00;4.10;;;1.10;;
52878;SDS011;38747;53.140;6.498;2022-09-09T14:27:26;5.80;;;1.20;;
52878;SDS011;38747;53.140;6.498;2022-09-09T14:29:52;4.70;;;1.10;;
52878;SDS011;38747;53.140;6.498;2022-09-09T14:32:18;4.87;;;0.93;;
52878;SDS011;38747;53.140;6.498;2022-09-09T14:34:44;3.38;;;1.00;;
52878;SDS011;38747;53.140;6.498;2022-09-09T14:37:09;4.25;;;1.17;;
52878;SDS011;38747;53.140;6.498;2022-09-09T14:39:35;4.07;;;0.97;;
52878;SDS011;38747;53.140;6.498;2022-09-09T14:42:01;7.20;;;1.10;;
52878;SDS011;38747;53.140;6.498;2022-09-09T14:44:27;3.28;;;0.80;;
52878;SDS011;38747;53.140;6.498;2022-09-09T14:46:53;3.33;;;0.90;;
52878;SDS011;38747;53.140;6.498;2022-09-09T14:49:19;2.80;;;0.80;;
52878;SDS011;38747;53.140;6.498;2022-09-09T14:51:44;7.83;;;1.23;;
52878;SDS011;38747;53.140;6.498;2022-09-09T14:54:10;3.47;;;0.90;;
52878;SDS011;38747;53.140;6.498;2022-09-09T14:56:36;4.37;;;1.00;;
52878;SDS011;38747;53.140;6.498;2022-09-09T14:59:02;3.03;;;0.90;;
52878;SDS011;38747;53.140;6.498;2022-09-09T15:01:28;3.35;;;0.80;;
52878;SDS011;38747;53.140;6.498;2022-09-09T15:04:02;3.33;;;0.70;;
52878;SDS011;38747;53.140;6.498;2022-09-09T15:06:32;4.28;;;1.00;;
52878;SDS011;38747;53.140;6.498;2022-09-09T15:09:00;4.68;;;1.15;;
52878;SDS011;38747;53.140;6.498;2022-09-09T15:11:26;2.80;;;0.88;;
52878;SDS011;38747;53.140;6.498;2022-09-09T15:13:55;3.30;;;0.80;;
52878;SDS011;38747;53.140;6.498;2022-09-09T15:16:21;4.37;;;1.23;;
52878;SDS011;38747;53.140;6.498;2022-09-09T15:18:50;5.88;;;1.08;;
52878;SDS011;38747;53.140;6.498;2022-09-09T15:21:19;4.03;;;1.27;;
52878;SDS011;38747;53.140;6.498;2022-09-09T15:23:47;4.03;;;0.97;;
52878;SDS011;38747;53.140;6.498;2022-09-09T15:26:13;4.50;;;1.00;;
52878;SDS011;38747;53.140;6.498;2022-09-09T15:28:40;3.92;;;0.90;;
52878;SDS011;38747;53.140;6.498;2022-09-09T15:31:11;5.57;;;1.00;;
52878;SDS011;38747;53.140;6.498;2022-09-09T15:33:54;4.82;;;1.00;;
52878;SDS011;38747;53.140;6.498;2022-09-09T15:36:29;3.13;;;0.93;;
52878;SDS011;38747;53.140;6.498;2022-09-09T15:39:06;3.80;;;1.10;;
52878;SDS011;38747;53.140;6.498;2022-09-09T15:41:34;4.65;;;1.10;;
52878;SDS011;38747;53.140;6.498;2022-09-09T15:44:00;3.70;;;1.00;;
52878;SDS011;38747;53.140;6.498;2022-09-09T15:46:30;3.30;;;0.93;;
52878;SDS011;38747;53.140;6.498;2022-09-09T15:49:07;4.20;;;1.00;;
52878;SDS011;38747;53.140;6.498;2022-09-09T15:51:44;4.35;;;1.00;;
52878;SDS011;38747;53.140;6.498;2022-09-09T15:54:14;4.45;;;1.10;;
52878;SDS011;38747;53.140;6.498;2022-09-09T15:56:43;4.78;;;1.10;;
52878;SDS011;38747;53.140;6.498;2022-09-09T15:59:11;4.05;;;1.30;;
52878;SDS011;38747;53.140;6.498;2022-09-09T16:01:37;3.33;;;1.20;;
52878;SDS011;38747;53.140;6.498;2022-09-09T16:04:04;5.28;;;1.00;;
52878;SDS011;38747;53.140;6.498;2022-09-09T16:06:31;4.75;;;1.10;;
52878;SDS011;38747;53.140;6.498;2022-09-09T16:08:58;4.95;;;1.30;;
52878;SDS011;38747;53.140;6.498;2022-09-09T16:11:29;4.22;;;1.20;;
52878;SDS011;38747;53.140;6.498;2022-09-09T16:13:56;4.83;;;1.10;;
52878;SDS011;38747;53.140;6.498;2022-09-09T16:16:23;3.58;;;0.88;;
52878;SDS011;38747;53.140;6.498;2022-09-09T16:18:51;4.20;;;1.00;;
52878;SDS011;38747;53.140;6.498;2022-09-09T16:21:23;3.35;;;1.20;;
52878;SDS011;38747;53.140;6.498;2022-09-09T16:23:54;5.97;;;1.33;;
52878;SDS011;38747;53.140;6.498;2022-09-09T16:26:21;4.43;;;1.10;;
52878;SDS011;38747;53.140;6.498;2022-09-09T16:28:48;5.07;;;1.30;;
52878;SDS011;38747;53.140;6.498;2022-09-09T16:31:18;6.88;;;1.55;;
52878;SDS011;38747;53.140;6.498;2022-09-09T16:33:45;4.50;;;1.35;;
52878;SDS011;38747;53.140;6.498;2022-09-09T16:36:13;5.97;;;1.30;;
52878;SDS011;38747;53.140;6.498;2022-09-09T16:38:40;3.90;;;1.30;;
52878;SDS011;38747;53.140;6.498;2022-09-09T16:41:08;4.30;;;1.15;;
52878;SDS011;38747;53.140;6.498;2022-09-09T16:43:35;4.82;;;1.17;;
52878;SDS011;38747;53.140;6.498;2022-09-09T16:46:03;4.50;;;1.23;;
52878;SDS011;38747;53.140;6.498;2022-09-09T16:48:35;6.70;;;1.17;;
52878;SDS011;38747;53.140;6.498;2022-09-09T16:51:05;5.10;;;1.40;;
52878;SDS011;38747;53.140;6.498;2022-09-09T16:53:32;4.38;;;1.17;;
52878;SDS011;38747;53.140;6.498;2022-09-09T16:56:04;5.22;;;1.05;;
52878;SDS011;38747;53.140;6.498;2022-09-09T16:58:31;5.97;;;1.15;;
52878;SDS011;38747;53.140;6.498;2022-09-09T17:00:57;5.63;;;1.27;;
52878;SDS011;38747;53.140;6.498;2022-09-09T17:03:24;4.05;;;1.30;;
52878;SDS011;38747;53.140;6.498;2022-09-09T17:05:49;6.53;;;1.50;;
52878;SDS011;38747;53.140;6.498;2022-09-09T17:08:15;3.67;;;1.20;;
52878;SDS011;38747;53.140;6.498;2022-09-09T17:10:41;5.60;;;1.40;;
52878;SDS011;38747;53.140;6.498;2022-09-09T17:13:07;4.25;;;1.20;;
52878;SDS011;38747;53.140;6.498;2022-09-09T17:15:33;5.43;;;1.40;;